Time;durP1;ratioP1;P1;durP2;ratioP2;P2;SDS_P1;SDS_P2;PMS_P1;PMS_P2;Temp;Humidity;BMP_temperature;BMP_pressure;BME280_temperature;BME280_humidity;BME280_pressure;Samples;Min_cycle;Max_cycle;Signal;HPM_P1;HPM_P2
2023/09/20 00:01:27;;;;;;;;;;;24.50;58.20;;;;;;5055517;28;19935;-59
2023/09/20 00:03:54;;;;;;;;;;;24.50;58.20;;;;;;5055355;28;19928;-59
2023/09/20 00:06:21;;;;;;;;;;;24.50;58.20;;;;;;5054865;28;20419;-59
2023/09/20 00:08:48;;;;;;;;;;;24.50;58.20;;;;;;5054620;28;20373;-59
2023/09/20 00:11:18;;;;;;;;;;;24.50;58.20;;;;;;5055766;28;20340;-59
2023/09/20 00:13:46;;;;;;;;;;;24.50;58.20;;;;;;5054826;28;19932;-59
2023/09/20 00:16:13;;;;;;;;;;;24.50;58.20;;;;;;5054067;28;19967;-59
2023/09/20 00:18:40;;;;;;;;;;;24.50;58.20;;;;;;5054885;28;19925;-59
2023/09/20 00:21:08;;;;;;;;;;;24.50;58.20;;;;;;5055886;28;19931;-59
2023/09/20 00:23:35;;;;;;;;;;;24.40;58.10;;;;;;5055585;28;19947;-59
2023/09/20 00:26:03;;;;;;;;;;;24.50;58.20;;;;;;5055626;28;19987;-59
2023/09/20 00:28:30;;;;;;;;;;;24.50;58.20;;;;;;5055164;28;20020;-59
2023/09/20 00:30:57;;;;;;;;;;;24.50;58.20;;;;;;5055137;28;20016;-59
2023/09/20 00:33:25;;;;;;;;;;;24.50;58.10;;;;;;5055108;28;19970;-59
2023/09/20 00:35:53;;;;;;;;;;;24.40;58.10;;;;;;5054848;28;19925;-59
2023/09/20 00:38:20;;;;;;;;;;;24.50;58.10;;;;;;5054665;28;19932;-58
2023/09/20 00:40:50;;;;;;;;;;;24.40;58.00;;;;;;5055221;28;19924;-59
2023/09/20 00:43:22;;;;;;;;;;;24.50;58.00;;;;;;5053492;28;19978;-59
2023/09/20 00:45:49;;;;;;;;;;;24.50;58.00;;;;;;5054461;28;19925;-59
2023/09/20 00:48:17;;;;;;;;;;;24.50;58.00;;;;;;5053790;28;19925;-59
2023/09/20 00:50:44;;;;;;;;;;;24.50;57.90;;;;;;5053327;28;19925;-59
2023/09/20 00:53:13;;;;;;;;;;;24.50;57.90;;;;;;5054344;28;20336;-59
2023/09/20 00:55:42;;;;;;;;;;;24.50;57.80;;;;;;5053853;28;20277;-59
2023/09/20 00:58:14;;;;;;;;;;;24.50;57.70;;;;;;5053676;28;19925;-59
2023/09/20 01:00:43;;;;;;;;;;;24.50;57.70;;;;;;5053882;28;20015;-59
2023/09/20 01:03:11;;;;;;;;;;;24.50;57.70;;;;;;5055137;28;19980;-59
2023/09/20 01:05:39;;;;;;;;;;;24.50;57.60;;;;;;5053133;28;19931;-59
2023/09/20 01:08:07;;;;;;;;;;;24.50;57.60;;;;;;5054041;28;19925;-59
2023/09/20 01:10:38;;;;;;;;;;;24.50;57.60;;;;;;5054537;28;20038;-59
2023/09/20 01:13:05;;;;;;;;;;;24.50;57.60;;;;;;5054698;28;19925;-59
2023/09/20 01:15:33;;;;;;;;;;;24.50;57.60;;;;;;5054194;28;19948;-59
2023/09/20 01:18:01;;;;;;;;;;;24.50;57.60;;;;;;5054143;28;20365;-59
2023/09/20 01:20:29;;;;;;;;;;;24.50;57.60;;;;;;5054372;28;19928;-59
2023/09/20 01:22:56;;;;;;;;;;;24.50;57.70;;;;;;5053692;28;20377;-59
2023/09/20 01:25:25;;;;;;;;;;;24.50;57.60;;;;;;5054579;28;19972;-59
2023/09/20 01:27:56;;;;;;;;;;;24.50;57.60;;;;;;5053996;28;20292;-59
2023/09/20 01:30:27;;;;;;;;;;;24.40;57.60;;;;;;5053962;28;19925;-59
2023/09/20 01:32:55;;;;;;;;;;;24.50;57.60;;;;;;5054360;28;19925;-59
2023/09/20 01:35:23;;;;;;;;;;;24.40;57.60;;;;;;5069118;28;19932;-59
2023/09/20 01:37:51;;;;;;;;;;;24.50;57.60;;;;;;5053361;28;19924;-59
2023/09/20 01:40:19;;;;;;;;;;;24.40;57.60;;;;;;5054358;28;20381;-59
2023/09/20 01:42:49;;;;;;;;;;;24.40;57.60;;;;;;5054189;28;19924;-59
2023/09/20 01:45:20;;;;;;;;;;;24.40;57.60;;;;;;5053786;28;20412;-59
2023/09/20 01:47:51;;;;;;;;;;;24.40;57.60;;;;;;5053981;28;19924;-59
2023/09/20 01:50:19;;;;;;;;;;;24.40;57.60;;;;;;5053733;28;20281;-59
2023/09/20 01:52:50;;;;;;;;;;;24.40;57.60;;;;;;5052206;28;20458;-59
2023/09/20 01:55:18;;;;;;;;;;;24.40;57.50;;;;;;5053312;28;20297;-59
2023/09/20 01:57:45;;;;;;;;;;;24.40;57.50;;;;;;5051796;28;19976;-59
2023/09/20 02:00:22;;;;;;;;;;;24.40;57.50;;;;;;5051647;28;19925;-59
2023/09/20 02:03:09;;;;;;;;;;;24.40;57.50;;;;;;5054107;28;19992;-59
2023/09/20 02:05:36;;;;;;;;;;;24.40;57.50;;;;;;5053235;28;20376;-59
2023/09/20 02:08:04;;;;;;;;;;;24.40;57.40;;;;;;5052333;28;19940;-59
2023/09/20 02:10:32;;;;;;;;;;;24.40;57.40;;;;;;5054002;28;19924;-59
2023/09/20 02:12:59;;;;;;;;;;;24.40;57.30;;;;;;5054209;28;20327;-58
2023/09/20 02:15:29;;;;;;;;;;;24.40;57.30;;;;;;5052634;28;20407;-59
2023/09/20 02:17:56;;;;;;;;;;;24.40;57.20;;;;;;5052425;28;19946;-59
2023/09/20 02:20:24;;;;;;;;;;;24.50;57.20;;;;;;5052634;28;19931;-59
2023/09/20 02:22:53;;;;;;;;;;;24.40;57.10;;;;;;5052718;28;20020;-59
2023/09/20 02:25:20;;;;;;;;;;;24.50;57.10;;;;;;5052784;28;19928;-59
2023/09/20 02:27:48;;;;;;;;;;;24.40;57.00;;;;;;5052711;28;20332;-59
2023/09/20 02:30:16;;;;;;;;;;;24.50;57.10;;;;;;5051791;28;19925;-59
2023/09/20 02:32:43;;;;;;;;;;;24.50;57.00;;;;;;5051973;28;19925;-59
2023/09/20 02:35:10;;;;;;;;;;;24.40;57.00;;;;;;5053253;28;19925;-60
2023/09/20 02:37:40;;;;;;;;;;;24.50;57.10;;;;;;5052115;28;19944;-59
2023/09/20 02:40:07;;;;;;;;;;;24.40;57.00;;;;;;5052520;28;20301;-59
2023/09/20 02:42:42;;;;;;;;;;;24.40;57.00;;;;;;5051129;28;19978;-59
2023/09/20 02:45:12;;;;;;;;;;;24.40;57.10;;;;;;5052303;28;19932;-59
2023/09/20 02:47:40;;;;;;;;;;;24.40;57.10;;;;;;5051767;28;19931;-59
2023/09/20 02:50:08;;;;;;;;;;;24.40;57.10;;;;;;5052982;28;19972;-59
2023/09/20 02:52:35;;;;;;;;;;;24.40;57.10;;;;;;5052825;28;19925;-60
2023/09/20 02:55:09;;;;;;;;;;;24.40;57.10;;;;;;5052419;28;19931;-60
2023/09/20 02:57:39;;;;;;;;;;;24.40;57.10;;;;;;5053655;28;19978;-59
2023/09/20 03:00:15;;;;;;;;;;;24.40;57.10;;;;;;5053463;28;19928;-59
2023/09/20 03:02:44;;;;;;;;;;;24.40;57.10;;;;;;5053107;28;20373;-59
2023/09/20 03:05:15;;;;;;;;;;;24.40;57.10;;;;;;5053187;28;20369;-59
2023/09/20 03:07:44;;;;;;;;;;;24.40;57.10;;;;;;5053016;28;19925;-59
2023/09/20 03:10:15;;;;;;;;;;;24.40;57.10;;;;;;5052298;28;19997;-59
2023/09/20 03:12:44;;;;;;;;;;;24.30;57.60;;;;;;5052637;28;19924;-59
2023/09/20 03:15:12;;;;;;;;;;;24.30;57.00;;;;;;5052698;28;19932;-59
2023/09/20 03:17:39;;;;;;;;;;;24.40;57.10;;;;;;5052507;28;19925;-59
2023/09/20 03:20:10;;;;;;;;;;;24.30;57.00;;;;;;5052037;28;19979;-59
2023/09/20 03:22:38;;;;;;;;;;;24.30;57.00;;;;;;5052460;28;19999;-59
2023/09/20 03:25:09;;;;;;;;;;;24.30;57.00;;;;;;5052442;28;19925;-59
2023/09/20 03:27:36;;;;;;;;;;;24.30;56.90;;;;;;5052069;28;19970;-59
2023/09/20 03:30:05;;;;;;;;;;;24.30;56.90;;;;;;5054023;28;19975;-58
2023/09/20 03:32:32;;;;;;;;;;;24.30;56.90;;;;;;5056478;28;19924;-59
2023/09/20 03:34:59;;;;;;;;;;;24.30;56.80;;;;;;5056066;28;20289;-59
2023/09/20 03:37:28;;;;;;;;;;;24.30;56.80;;;;;;5055884;28;19932;-59
2023/09/20 03:39:55;;;;;;;;;;;24.40;57.20;;;;;;5055387;28;19929;-58
2023/09/20 03:42:22;;;;;;;;;;;24.40;56.70;;;;;;5054986;28;20014;-59
2023/09/20 03:44:49;;;;;;;;;;;24.40;56.60;;;;;;5054461;28;19925;-59
2023/09/20 03:47:16;;;;;;;;;;;24.40;56.50;;;;;;5055883;28;19955;-59
2023/09/20 03:49:43;;;;;;;;;;;24.40;56.50;;;;;;5056222;28;20344;-59
2023/09/20 03:52:11;;;;;;;;;;;24.40;56.50;;;;;;5055554;28;19971;-59
2023/09/20 03:54:38;;;;;;;;;;;24.40;56.50;;;;;;5056801;28;19955;-59
2023/09/20 03:57:07;;;;;;;;;;;24.40;56.50;;;;;;5054813;28;19979;-58
2023/09/20 03:59:34;;;;;;;;;;;24.40;56.50;;;;;;5060885;28;19944;-59
2023/09/20 04:02:03;;;;;;;;;;;24.40;56.50;;;;;;5046349;28;19932;-59
2023/09/20 04:04:30;;;;;;;;;;;24.40;56.60;;;;;;5068256;28;19925;-59
2023/09/20 04:06:59;;;;;;;;;;;24.30;56.50;;;;;;5050716;28;19979;-59
2023/09/20 04:09:26;;;;;;;;;;;24.30;56.50;;;;;;5046241;28;19929;-59
2023/09/20 04:11:53;;;;;;;;;;;24.30;56.50;;;;;;5047166;28;19925;-59
2023/09/20 04:14:20;;;;;;;;;;;24.30;56.50;;;;;;5047028;28;20280;-59
2023/09/20 04:16:47;;;;;;;;;;;24.30;56.50;;;;;;5055953;28;20011;-59
2023/09/20 04:19:14;;;;;;;;;;;24.30;56.50;;;;;;5052455;28;19932;-59
2023/09/20 04:21:41;;;;;;;;;;;24.30;56.50;;;;;;5077950;28;19925;-59
2023/09/20 04:24:08;;;;;;;;;;;24.30;56.50;;;;;;5050528;28;19975;-59
2023/09/20 04:26:35;;;;;;;;;;;24.30;56.50;;;;;;5055925;28;19925;-58
2023/09/20 04:29:04;;;;;;;;;;;24.30;56.50;;;;;;5054825;28;20373;-59
2023/09/20 04:31:33;;;;;;;;;;;24.30;56.50;;;;;;5055318;28;19932;-59
2023/09/20 04:34:00;;;;;;;;;;;24.30;56.50;;;;;;5055679;28;19924;-59
2023/09/20 04:36:27;;;;;;;;;;;24.30;56.40;;;;;;5054729;28;19929;-59
2023/09/20 04:38:55;;;;;;;;;;;24.30;56.40;;;;;;5056288;28;20356;-59
2023/09/20 04:41:22;;;;;;;;;;;24.20;56.20;;;;;;5049426;28;19925;-59
2023/09/20 04:43:49;;;;;;;;;;;24.10;56.40;;;;;;5053969;28;20172;-59
2023/09/20 04:46:16;;;;;;;;;;;23.90;56.60;;;;;;5055144;28;20328;-59
2023/09/20 04:48:44;;;;;;;;;;;23.70;57.20;;;;;;5053495;28;19925;-59
2023/09/20 04:51:11;;;;;;;;;;;23.40;55.20;;;;;;5054695;28;19979;-59
2023/09/20 04:53:39;;;;;;;;;;;23.10;54.20;;;;;;5054556;28;19936;-59
2023/09/20 04:56:06;;;;;;;;;;;22.90;52.60;;;;;;5050145;28;19925;-59
2023/09/20 04:58:34;;;;;;;;;;;22.60;52.00;;;;;;5044566;28;19979;-59
2023/09/20 05:01:01;;;;;;;;;;;22.30;51.40;;;;;;5048420;28;19932;-57
2023/09/20 05:03:29;;;;;;;;;;;22.00;51.40;;;;;;5052652;28;19955;-58
2023/09/20 05:05:56;;;;;;;;;;;21.70;51.40;;;;;;5041991;28;19975;-58
2023/09/20 05:08:23;;;;;;;;;;;21.40;51.00;;;;;;5042282;28;19978;-58
2023/09/20 05:10:51;;;;;;;;;;;21.10;51.90;;;;;;5043864;28;20020;-58
2023/09/20 05:13:18;;;;;;;;;;;20.90;52.00;;;;;;5075604;28;19979;-58
2023/09/20 05:15:45;;;;;;;;;;;20.60;52.20;;;;;;5067085;28;19971;-58
2023/09/20 05:18:13;;;;;;;;;;;20.50;53.40;;;;;;5048394;28;20381;-58
2023/09/20 05:20:42;;;;;;;;;;;20.20;53.00;;;;;;5047462;28;20296;-58
2023/09/20 05:23:10;;;;;;;;;;;20.00;54.20;;;;;;5050371;28;19933;-65
2023/09/20 05:25:38;;;;;;;;;;;19.90;51.20;;;;;;5065219;28;19924;-59
2023/09/20 05:28:05;;;;;;;;;;;19.70;53.10;;;;;;5048808;28;19933;-66
2023/09/20 05:30:33;;;;;;;;;;;19.60;54.10;;;;;;5040808;28;19924;-65
2023/09/20 05:33:00;;;;;;;;;;;19.50;52.20;;;;;;5043114;28;19932;-66
2023/09/20 05:35:28;;;;;;;;;;;19.40;51.60;;;;;;5048272;28;19925;-65
2023/09/20 05:37:55;;;;;;;;;;;19.40;53.40;;;;;;5047177;28;19935;-64
2023/09/20 05:40:22;;;;;;;;;;;19.30;53.20;;;;;;5044557;28;20336;-64
2023/09/20 05:42:52;;;;;;;;;;;19.20;51.90;;;;;;5042744;28;20098;-67
2023/09/20 05:45:20;;;;;;;;;;;19.20;52.90;;;;;;5047813;28;19929;-67
2023/09/20 05:47:49;;;;;;;;;;;19.20;53.20;;;;;;5038191;28;19933;-67
2023/09/20 05:50:17;;;;;;;;;;;19.20;53.00;;;;;;5040435;28;20460;-66
2023/09/20 05:52:45;;;;;;;;;;;19.10;52.80;;;;;;5041708;28;19974;-66
2023/09/20 05:55:14;;;;;;;;;;;19.00;54.20;;;;;;5042061;28;19936;-67
2023/09/20 05:57:41;;;;;;;;;;;19.00;53.30;;;;;;5041314;28;19972;-68
2023/09/20 06:00:16;;;;;;;;;;;19.00;53.00;;;;;;5045308;28;19924;-67
2023/09/20 06:02:43;;;;;;;;;;;19.00;53.30;;;;;;5047568;28;19932;-67
2023/09/20 06:05:18;;;;;;;;;;;19.00;54.50;;;;;;5040471;28;19939;-67
2023/09/20 06:07:49;;;;;;;;;;;18.90;52.30;;;;;;5041908;28;19971;-64
2023/09/20 06:10:17;;;;;;;;;;;18.90;53.20;;;;;;5044196;28;19930;-65
2023/09/20 06:12:45;;;;;;;;;;;18.90;53.40;;;;;;5046701;28;20339;-66
2023/09/20 06:15:13;;;;;;;;;;;18.80;52.90;;;;;;5042472;28;20027;-67
2023/09/20 06:17:42;;;;;;;;;;;18.80;52.60;;;;;;5040113;28;19967;-67
2023/09/20 06:20:12;;;;;;;;;;;18.80;53.70;;;;;;5046863;28;20020;-66
2023/09/20 06:22:39;;;;;;;;;;;18.80;54.70;;;;;;5048672;28;20024;-65
2023/09/20 06:25:06;;;;;;;;;;;18.80;52.00;;;;;;5040478;28;19924;-65
2023/09/20 06:27:34;;;;;;;;;;;18.70;53.20;;;;;;5044705;28;19932;-69
2023/09/20 06:30:12;;;;;;;;;;;18.70;53.20;;;;;;5040288;28;19932;-68
2023/09/20 06:32:40;;;;;;;;;;;18.60;52.20;;;;;;5045264;28;19939;-74
2023/09/20 06:35:08;;;;;;;;;;;18.60;53.90;;;;;;5041481;28;20112;-70
2023/09/20 06:37:36;;;;;;;;;;;18.50;55.10;;;;;;5042702;28;19928;-69
2023/09/20 06:40:04;;;;;;;;;;;18.50;56.60;;;;;;5046403;28;19925;-73
2023/09/20 06:42:31;;;;;;;;;;;18.50;57.10;;;;;;5045013;28;19925;-69
2023/09/20 06:44:58;;;;;;;;;;;18.40;55.00;;;;;;5042074;28;19933;-69
2023/09/20 06:47:25;;;;;;;;;;;18.40;55.80;;;;;;5044335;28;19932;-68
2023/09/20 06:49:53;;;;;;;;;;;18.50;54.00;;;;;;5041241;28;20082;-68
2023/09/20 06:52:20;;;;;;;;;;;18.50;55.00;;;;;;5045642;28;20289;-68
2023/09/20 06:54:47;;;;;;;;;;;18.40;55.30;;;;;;5042605;28;20420;-68
2023/09/20 06:57:18;;;;;;;;;;;18.50;56.60;;;;;;5043611;28;19925;-69
2023/09/20 06:59:45;;;;;;;;;;;18.50;56.70;;;;;;5047324;28;19935;-68
2023/09/20 07:02:16;;;;;;;;;;;18.50;57.40;;;;;;5041960;28;20293;-70
2023/09/20 07:04:44;;;;;;;;;;;18.50;57.00;;;;;;5042819;28;19928;-68
2023/09/20 07:07:12;;;;;;;;;;;18.40;57.70;;;;;;5049485;28;19982;-70
2023/09/20 07:09:40;;;;;;;;;;;18.40;58.10;;;;;;5052245;28;19925;-70
2023/09/20 07:12:07;;;;;;;;;;;18.40;56.40;;;;;;5048475;28;19933;-70
2023/09/20 07:14:35;;;;;;;;;;;18.40;58.20;;;;;;5045741;28;19933;-71
2023/09/20 07:17:03;;;;;;;;;;;18.40;57.70;;;;;;5042789;28;19936;-70
2023/09/20 07:19:31;;;;;;;;;;;18.50;58.00;;;;;;5042365;28;19936;-72
2023/09/20 07:21:59;;;;;;;;;;;18.40;56.60;;;;;;5045210;28;19929;-71
2023/09/20 07:24:27;;;;;;;;;;;18.50;55.70;;;;;;5041836;28;19924;-69
2023/09/20 07:26:58;;;;;;;;;;;18.50;56.10;;;;;;5046816;28;19928;-69
2023/09/20 07:29:25;;;;;;;;;;;18.50;56.20;;;;;;5048854;28;19931;-70
2023/09/20 07:31:53;;;;;;;;;;;18.50;55.70;;;;;;5042830;28;19932;-71
2023/09/20 07:34:23;;;;;;;;;;;18.50;56.90;;;;;;5047584;28;20518;-71
2023/09/20 07:36:53;;;;;;;;;;;18.50;57.50;;;;;;5044285;28;19975;-71
2023/09/20 07:39:23;;;;;;;;;;;18.50;56.80;;;;;;5045256;28;20012;-70
2023/09/20 07:41:51;;;;;;;;;;;18.50;57.60;;;;;;5048470;28;19933;-73
2023/09/20 07:44:23;;;;;;;;;;;18.50;58.30;;;;;;5045541;28;19932;-72
2023/09/20 07:46:57;;;;;;;;;;;18.50;58.70;;;;;;5044849;28;20353;-69
2023/09/20 07:49:24;;;;;;;;;;;18.50;56.70;;;;;;5049082;28;19925;-72
2023/09/20 07:51:53;;;;;;;;;;;18.50;58.10;;;;;;5052333;28;19994;-71
2023/09/20 07:54:21;;;;;;;;;;;18.50;59.50;;;;;;5048843;28;19929;-70
2023/09/20 07:56:52;;;;;;;;;;;18.50;58.20;;;;;;5047817;28;19928;-69
2023/09/20 07:59:23;;;;;;;;;;;18.50;60.10;;;;;;5051305;28;19952;-70
2023/09/20 08:01:52;;;;;;;;;;;18.50;60.40;;;;;;5047210;28;20023;-69
2023/09/20 08:04:20;;;;;;;;;;;18.50;59.60;;;;;;5048677;28;20019;-69
2023/09/20 08:06:48;;;;;;;;;;;18.50;59.30;;;;;;5048344;28;20046;-70
2023/09/20 08:09:15;;;;;;;;;;;18.50;57.10;;;;;;5045790;28;20027;-70
2023/09/20 08:11:42;;;;;;;;;;;18.50;60.00;;;;;;5046271;28;19924;-68
2023/09/20 08:14:09;;;;;;;;;;;18.50;59.80;;;;;;5050721;28;19925;-68
2023/09/20 08:16:37;;;;;;;;;;;18.50;59.10;;;;;;5049214;28;19936;-68
2023/09/20 08:19:30;;;;;;;;;;;18.60;59.60;;;;;;5047948;28;19968;-70
2023/09/20 08:21:57;;;;;;;;;;;18.50;59.70;;;;;;5043586;28;19975;-69
2023/09/20 09:00:46;;;;;;;;;;;19.00;62.00;;;;;;5045335;28;19924;-66
2023/09/20 09:03:15;;;;;;;;;;;19.00;62.00;;;;;;5045675;28;19929;-67
2023/09/20 09:05:43;;;;;;;;;;;19.00;63.00;;;;;;5044303;28;20011;-67
2023/09/20 09:08:13;;;;;;;;;;;19.00;63.00;;;;;;5045390;28;19925;-68
2023/09/20 09:10:40;;;;;;;;;;;19.00;63.20;;;;;;5042613;28;20031;-67
2023/09/20 09:13:07;;;;;;;;;;;19.10;62.50;;;;;;5043283;28;19935;-67
2023/09/20 09:15:34;;;;;;;;;;;19.10;62.00;;;;;;5044806;28;19933;-67
2023/09/20 09:18:02;;;;;;;;;;;19.10;61.70;;;;;;5041452;28;19999;-66
2023/09/20 09:20:32;;;;;;;;;;;19.10;62.60;;;;;;5046779;28;19925;-66
2023/09/20 09:23:02;;;;;;;;;;;19.20;62.50;;;;;;5045130;28;20420;-66
2023/09/20 09:25:31;;;;;;;;;;;19.20;62.30;;;;;;5041212;28;19940;-67
2023/09/20 09:27:59;;;;;;;;;;;19.20;62.60;;;;;;5039302;28;19960;-66
2023/09/20 09:30:27;;;;;;;;;;;19.20;62.80;;;;;;5042913;28;19955;-66
2023/09/20 09:32:54;;;;;;;;;;;19.20;63.10;;;;;;5044439;28;20059;-66
2023/09/20 09:35:22;;;;;;;;;;;19.20;63.80;;;;;;5041427;28;19925;-66
2023/09/20 09:37:51;;;;;;;;;;;19.20;63.60;;;;;;5040803;28;20027;-66
2023/09/20 09:40:19;;;;;;;;;;;19.30;63.20;;;;;;5040816;28;19931;-67
2023/09/20 09:42:48;;;;;;;;;;;19.30;63.60;;;;;;5041522;28;19970;-66
2023/09/20 09:45:28;;;;;;;;;;;19.30;63.00;;;;;;5044326;28;19986;-67
2023/09/20 09:47:58;;;;;;;;;;;19.30;62.30;;;;;;5044877;28;19929;-67
2023/09/20 09:50:26;;;;;;;;;;;19.30;62.10;;;;;;5039520;28;20373;-67
2023/09/20 09:52:54;;;;;;;;;;;19.30;61.40;;;;;;5045910;28;19943;-67
2023/09/20 09:55:21;;;;;;;;;;;19.30;62.70;;;;;;5044466;28;19963;-67
2023/09/20 09:57:49;;;;;;;;;;;19.30;61.90;;;;;;5044813;28;20364;-68
2023/09/20 10:00:19;;;;;;;;;;;19.40;62.20;;;;;;5049029;28;19928;-67
2023/09/20 10:02:46;;;;;;;;;;;19.40;61.90;;;;;;5043593;28;19932;-67
2023/09/20 10:05:14;;;;;;;;;;;19.40;61.80;;;;;;5040765;28;19933;-67
2023/09/20 10:07:44;;;;;;;;;;;19.40;61.80;;;;;;5048667;28;19928;-67
2023/09/20 10:10:16;;;;;;;;;;;19.40;61.10;;;;;;5044202;28;20028;-67
2023/09/20 10:12:48;;;;;;;;;;;19.40;61.10;;;;;;5045170;28;19929;-67
2023/09/20 10:15:16;;;;;;;;;;;19.30;61.30;;;;;;5044322;28;19925;-68
2023/09/20 10:17:52;;;;;;;;;;;19.30;61.50;;;;;;5050823;28;19986;-69
2023/09/20 10:20:19;;;;;;;;;;;19.30;61.20;;;;;;5044293;28;20373;-67
2023/09/20 10:22:47;;;;;;;;;;;19.30;61.40;;;;;;5046154;28;20011;-67
2023/09/20 10:25:32;;;;;;;;;;;19.30;61.70;;;;;;5043854;28;20270;-67
2023/09/20 10:28:03;;;;;;;;;;;19.30;61.20;;;;;;5042163;28;19968;-67
2023/09/20 10:30:50;;;;;;;;;;;19.30;61.70;;;;;;5044644;28;19947;-68
2023/09/20 10:33:40;;;;;;;;;;;19.30;61.70;;;;;;5053404;28;19970;-67
2023/09/20 10:36:10;;;;;;;;;;;19.30;61.70;;;;;;5050387;28;19925;-67
2023/09/20 10:38:39;;;;;;;;;;;19.20;62.00;;;;;;5049594;28;19931;-68
2023/09/20 10:41:10;;;;;;;;;;;19.30;61.70;;;;;;5051378;28;20398;-67
2023/09/20 10:43:42;;;;;;;;;;;19.30;60.80;;;;;;5046008;28;19933;-67
2023/09/20 10:46:14;;;;;;;;;;;19.30;60.80;;;;;;5062780;28;19933;-67
2023/09/20 10:48:50;;;;;;;;;;;19.30;61.10;;;;;;5043591;28;20028;-67
2023/09/20 10:51:38;;;;;;;;;;;19.30;61.30;;;;;;5042599;28;19929;-66
2023/09/20 10:54:25;;;;;;;;;;;19.30;62.30;;;;;;5043345;28;19933;-66
2023/09/20 10:56:53;;;;;;;;;;;19.30;62.00;;;;;;5040931;28;19974;-61
2023/09/20 10:59:22;;;;;;;;;;;19.30;62.40;;;;;;5037631;28;20107;-65
2023/09/20 11:01:50;;;;;;;;;;;19.40;62.20;;;;;;5056566;28;19932;-65
2023/09/20 11:04:17;;;;;;;;;;;19.40;61.80;;;;;;5043916;28;19947;-65
2023/09/20 11:06:45;;;;;;;;;;;19.40;61.10;;;;;;5045052;28;19928;-66
2023/09/20 11:09:13;;;;;;;;;;;19.40;61.40;;;;;;5043185;28;20443;-66
2023/09/20 11:11:41;;;;;;;;;;;19.50;61.80;;;;;;5041094;28;20686;-68
2023/09/20 11:14:09;;;;;;;;;;;19.50;61.80;;;;;;5034847;28;21286;-66
2023/09/20 11:16:41;;;;;;;;;;;19.50;61.60;;;;;;5041789;28;19966;-68
2023/09/20 11:19:10;;;;;;;;;;;19.50;61.90;;;;;;5042387;28;19974;-71
2023/09/20 11:21:41;;;;;;;;;;;19.50;61.90;;;;;;5042582;28;20352;-69
2023/09/20 11:24:10;;;;;;;;;;;19.60;61.80;;;;;;5048416;28;20473;-66
2023/09/20 11:26:47;;;;;;;;;;;19.60;62.30;;;;;;5043440;28;19924;-70
2023/09/20 11:29:16;;;;;;;;;;;19.60;62.20;;;;;;5041150;28;20039;-67
2023/09/20 11:31:48;;;;;;;;;;;19.60;61.80;;;;;;5041203;28;20460;-69
2023/09/20 11:34:19;;;;;;;;;;;19.70;62.30;;;;;;5043161;28;20328;-68
2023/09/20 11:36:47;;;;;;;;;;;19.70;62.00;;;;;;5041679;28;19982;-68
2023/09/20 11:39:14;;;;;;;;;;;19.70;61.80;;;;;;5041804;28;19940;-67
2023/09/20 11:41:45;;;;;;;;;;;19.80;61.90;;;;;;5037936;28;20305;-68
2023/09/20 11:44:12;;;;;;;;;;;19.80;61.40;;;;;;5039845;28;19963;-68
2023/09/20 11:46:39;;;;;;;;;;;19.90;62.00;;;;;;5038306;28;19964;-67
2023/09/20 11:49:08;;;;;;;;;;;19.90;62.10;;;;;;5040454;28;19928;-68
2023/09/20 11:51:36;;;;;;;;;;;19.90;62.30;;;;;;5043251;28;19925;-68
2023/09/20 11:54:05;;;;;;;;;;;19.90;62.40;;;;;;5043069;28;19933;-66
2023/09/20 11:56:33;;;;;;;;;;;20.00;62.40;;;;;;5046099;28;19937;-69
2023/09/20 11:59:01;;;;;;;;;;;20.00;62.00;;;;;;5043039;28;19991;-67
2023/09/20 12:01:33;;;;;;;;;;;20.10;62.10;;;;;;5041474;28;19963;-72
2023/09/20 12:04:00;;;;;;;;;;;20.10;61.90;;;;;;5045806;28;19996;-70
2023/09/20 12:06:27;;;;;;;;;;;20.20;62.10;;;;;;5044540;28;19925;-72
2023/09/20 12:08:54;;;;;;;;;;;20.20;61.70;;;;;;5044247;28;19929;-68
2023/09/20 12:11:22;;;;;;;;;;;20.30;61.70;;;;;;5028068;28;19967;-68
2023/09/20 12:13:50;;;;;;;;;;;20.30;61.60;;;;;;5043001;28;20016;-69
2023/09/20 12:16:18;;;;;;;;;;;20.30;61.70;;;;;;5045451;28;19924;-71
2023/09/20 12:18:45;;;;;;;;;;;20.30;61.80;;;;;;5044360;28;19932;-68
2023/09/20 12:21:15;;;;;;;;;;;20.30;61.80;;;;;;5045054;28;20399;-69
2023/09/20 12:23:42;;;;;;;;;;;20.30;62.30;;;;;;5052664;28;19974;-67
2023/09/20 12:26:12;;;;;;;;;;;20.40;61.60;;;;;;5042877;28;20028;-68
2023/09/20 12:28:39;;;;;;;;;;;20.40;61.50;;;;;;5052334;28;19933;-68
2023/09/20 12:31:08;;;;;;;;;;;20.50;61.60;;;;;;5047229;28;19996;-73
2023/09/20 12:33:35;;;;;;;;;;;20.50;60.80;;;;;;5047609;28;20943;-68
2023/09/20 12:36:04;;;;;;;;;;;20.50;60.60;;;;;;5049657;28;19939;-69
2023/09/20 12:38:32;;;;;;;;;;;20.50;61.00;;;;;;5045048;28;20305;-68
2023/09/20 12:41:00;;;;;;;;;;;20.50;60.50;;;;;;5041137;28;20015;-66
2023/09/20 12:43:27;;;;;;;;;;;20.60;61.10;;;;;;5043939;28;20390;-67
2023/09/20 12:45:57;;;;;;;;;;;20.60;61.50;;;;;;5043967;28;20798;-68
2023/09/20 12:48:27;;;;;;;;;;;20.60;61.70;;;;;;5032100;28;19925;-69
2023/09/20 12:50:54;;;;;;;;;;;20.70;61.50;;;;;;5045494;28;20032;-67
2023/09/20 12:53:23;;;;;;;;;;;20.80;61.40;;;;;;5043531;28;20369;-68
2023/09/20 12:55:50;;;;;;;;;;;20.70;60.60;;;;;;5042741;28;19935;-67
2023/09/20 12:58:17;;;;;;;;;;;20.70;61.20;;;;;;5049929;28;19925;-68
2023/09/20 13:00:49;;;;;;;;;;;20.80;61.00;;;;;;5045394;28;19943;-68
2023/09/20 13:03:17;;;;;;;;;;;20.80;60.90;;;;;;5042910;28;20408;-66
2023/09/20 13:05:45;;;;;;;;;;;20.80;60.90;;;;;;5044181;28;19931;-70
2023/09/20 13:08:16;;;;;;;;;;;20.80;60.80;;;;;;5044040;28;19933;-67
2023/09/20 13:10:51;;;;;;;;;;;20.80;60.90;;;;;;5044770;28;19925;-70
2023/09/20 13:13:18;;;;;;;;;;;20.80;61.20;;;;;;5044988;28;20020;-67
2023/09/20 13:15:45;;;;;;;;;;;20.80;60.90;;;;;;5043080;28;19952;-66
2023/09/20 13:18:13;;;;;;;;;;;20.90;60.40;;;;;;5044406;28;19929;-70
2023/09/20 13:20:43;;;;;;;;;;;20.90;59.80;;;;;;5042168;28;19933;-69
2023/09/20 13:23:11;;;;;;;;;;;21.00;59.00;;;;;;5046760;28;20407;-69
2023/09/20 13:25:44;;;;;;;;;;;21.00;60.00;;;;;;5045574;28;20333;-69
2023/09/20 13:28:12;;;;;;;;;;;21.00;60.20;;;;;;5042760;28;20383;-68
2023/09/20 13:30:41;;;;;;;;;;;21.10;59.50;;;;;;5044583;28;20584;-68
2023/09/20 13:33:10;;;;;;;;;;;21.10;59.00;;;;;;5054905;28;19979;-68
2023/09/20 13:35:39;;;;;;;;;;;21.10;59.10;;;;;;5045043;28;19931;-68
2023/09/20 13:38:06;;;;;;;;;;;21.10;59.90;;;;;;5040780;28;19928;-70
2023/09/20 13:40:33;;;;;;;;;;;21.10;59.30;;;;;;5042569;28;20880;-68
2023/09/20 13:43:01;;;;;;;;;;;21.10;59.30;;;;;;5041921;28;20263;-70
2023/09/20 13:45:29;;;;;;;;;;;21.10;60.00;;;;;;5041251;28;19932;-70
2023/09/20 13:47:57;;;;;;;;;;;21.10;60.00;;;;;;5040650;28;19947;-70
2023/09/20 13:50:24;;;;;;;;;;;21.10;60.30;;;;;;5043577;28;20408;-67
2023/09/20 13:52:52;;;;;;;;;;;21.10;60.30;;;;;;5042136;28;19929;-67
2023/09/20 13:55:20;;;;;;;;;;;21.10;60.00;;;;;;5044868;28;19928;-70
2023/09/20 13:57:59;;;;;;;;;;;21.00;60.00;;;;;;5046615;28;20336;-62
2023/09/20 14:00:28;;;;;;;;;;;21.00;59.90;;;;;;5042383;28;19929;-64
2023/09/20 14:02:57;;;;;;;;;;;21.00;59.80;;;;;;5048356;28;19976;-63
2023/09/20 14:05:25;;;;;;;;;;;21.00;61.10;;;;;;5040689;28;20392;-64
2023/09/20 14:07:55;;;;;;;;;;;21.20;69.70;;;;;;5043847;28;19963;-65
2023/09/20 14:10:24;;;;;;;;;;;21.40;74.10;;;;;;5047662;28;20377;-64
2023/09/20 14:12:51;;;;;;;;;;;21.70;75.90;;;;;;5043146;28;19925;-68
2023/09/20 14:15:21;;;;;;;;;;;22.00;76.40;;;;;;5040880;28;19926;-63
2023/09/20 14:17:51;;;;;;;;;;;22.20;76.50;;;;;;5043522;28;19943;-63
2023/09/20 14:20:20;;;;;;;;;;;22.50;76.10;;;;;;5045117;28;19978;-65
2023/09/20 14:22:50;;;;;;;;;;;22.70;75.90;;;;;;5042578;28;19939;-64
2023/09/20 14:25:17;;;;;;;;;;;23.00;75.70;;;;;;5044915;28;20011;-63
2023/09/20 14:27:45;;;;;;;;;;;23.10;75.70;;;;;;5046428;28;19933;-65
2023/09/20 14:30:15;;;;;;;;;;;23.30;75.50;;;;;;5043513;28;19928;-63
2023/09/20 14:32:44;;;;;;;;;;;23.50;75.00;;;;;;5045846;28;19959;-66
2023/09/20 14:35:12;;;;;;;;;;;23.60;74.90;;;;;;5049616;28;19931;-66
2023/09/20 14:37:41;;;;;;;;;;;23.70;74.90;;;;;;5040329;28;20017;-63
2023/09/20 14:40:17;;;;;;;;;;;23.80;74.20;;;;;;5049563;28;19925;-63
2023/09/20 14:42:50;;;;;;;;;;;23.90;73.90;;;;;;5053072;28;20344;-62
2023/09/20 14:45:22;;;;;;;;;;;24.00;74.10;;;;;;5051217;28;20293;-65
2023/09/20 14:47:50;;;;;;;;;;;24.10;73.90;;;;;;5051784;28;19932;-63
2023/09/20 14:50:18;;;;;;;;;;;24.20;73.90;;;;;;5052287;28;20389;-63
2023/09/20 14:52:46;;;;;;;;;;;24.30;73.80;;;;;;5052838;28;19925;-63
2023/09/20 14:55:15;;;;;;;;;;;24.30;73.50;;;;;;5052409;28;19932;-63
2023/09/20 14:57:42;;;;;;;;;;;24.40;73.00;;;;;;5052960;28;20293;-62
2023/09/20 15:00:16;;;;;;;;;;;24.40;72.70;;;;;;5051615;28;19970;-63
2023/09/20 15:02:44;;;;;;;;;;;24.50;72.70;;;;;;5052692;28;19967;-63